createdAt,value
2018-12-30T00:00:53.153Z,90.80
2018-12-30T00:03:22.185Z,90.90
2018-12-30T00:05:51.562Z,90.90
2018-12-30T00:08:20.619Z,90.80
2018-12-30T00:10:49.535Z,90.60
2018-12-30T00:13:18.207Z,90.40
2018-12-30T00:15:46.917Z,90.40
2018-12-30T00:18:15.804Z,90.10
2018-12-30T00:20:44.865Z,90.10
2018-12-30T00:23:14.206Z,90.00
2018-12-30T00:25:43.062Z,90.10
2018-12-30T00:28:11.740Z,90.00
2018-12-30T00:30:40.348Z,90.30
2018-12-30T00:33:09.027Z,89.90
2018-12-30T00:35:37.817Z,90.00
2018-12-30T00:38:06.752Z,90.30
2018-12-30T00:40:35.394Z,90.60
2018-12-30T00:43:04.330Z,90.40
2018-12-30T00:45:32.950Z,90.60
2018-12-30T00:48:01.570Z,90.30
2018-12-30T00:50:30.154Z,90.60
2018-12-30T00:52:58.836Z,90.60
2018-12-30T00:55:27.478Z,91.00
2018-12-30T00:57:56.084Z,90.80
2018-12-30T01:00:24.838Z,91.00
2018-12-30T01:02:53.413Z,91.10
2018-12-30T01:05:22.200Z,91.30
2018-12-30T01:07:50.851Z,91.40
2018-12-30T01:10:19.538Z,91.20
2018-12-30T01:12:48.251Z,91.00
2018-12-30T01:15:16.967Z,91.00
2018-12-30T01:17:45.668Z,91.20
2018-12-30T01:20:14.561Z,90.70
2018-12-30T01:22:43.145Z,90.50
2018-12-30T01:25:11.861Z,90.80
2018-12-30T01:27:40.456Z,90.90
2018-12-30T01:30:09.211Z,91.20
2018-12-30T01:32:37.792Z,91.10
2018-12-30T01:35:06.585Z,91.30
2018-12-30T01:37:35.230Z,91.30
2018-12-30T01:40:04.397Z,91.40
2018-12-30T01:42:32.974Z,91.30
2018-12-30T01:45:01.558Z,91.40
2018-12-30T01:47:30.181Z,91.70
2018-12-30T01:49:58.761Z,91.20
2018-12-30T01:52:27.402Z,91.00
2018-12-30T01:54:56.018Z,91.10
2018-12-30T01:57:24.593Z,91.10
2018-12-30T01:59:53.605Z,91.00
2018-12-30T02:02:22.256Z,91.30
2018-12-30T02:04:50.905Z,91.20
2018-12-30T02:07:19.542Z,91.30
2018-12-30T02:09:48.115Z,91.50
2018-12-30T02:12:16.818Z,91.20
2018-12-30T02:14:45.397Z,91.30
2018-12-30T02:17:14.033Z,91.20
2018-12-30T02:19:42.649Z,91.10
2018-12-30T02:22:11.305Z,90.90
2018-12-30T02:24:39.921Z,90.90
2018-12-30T02:27:08.520Z,90.80
2018-12-30T02:29:37.209Z,90.60
2018-12-30T02:32:05.897Z,90.50
2018-12-30T02:34:34.594Z,90.40
2018-12-30T02:37:03.233Z,90.20
2018-12-30T02:39:31.810Z,90.10
2018-12-30T02:42:00.519Z,90.20
2018-12-30T02:44:29.141Z,90.20
2018-12-30T02:46:57.794Z,90.30
2018-12-30T02:49:26.473Z,90.30
2018-12-30T02:51:55.144Z,90.40
2018-12-30T02:54:23.717Z,90.40
2018-12-30T02:56:52.338Z,90.50
2018-12-30T02:59:20.934Z,90.50
2018-12-30T03:01:49.714Z,90.40
2018-12-30T03:04:18.358Z,90.40
2018-12-30T03:06:46.991Z,90.50
2018-12-30T03:09:15.585Z,90.40
2018-12-30T03:11:44.211Z,90.40
2018-12-30T03:14:12.808Z,90.50
2018-12-30T03:16:41.589Z,90.60
2018-12-30T03:19:10.232Z,90.90
2018-12-30T03:21:38.879Z,90.80
2018-12-30T03:24:07.515Z,90.80
2018-12-30T03:26:36.221Z,90.90
2018-12-30T03:29:04.780Z,90.80
2018-12-30T03:31:33.418Z,90.90
2018-12-30T03:34:02.064Z,91.00
2018-12-30T03:36:30.738Z,91.10
2018-12-30T03:38:59.346Z,90.70
2018-12-30T03:41:28.098Z,90.70
2018-12-30T03:43:56.682Z,90.70
2018-12-30T03:46:25.251Z,90.90
2018-12-30T03:48:53.933Z,90.80
2018-12-30T03:51:22.504Z,90.80
2018-12-30T03:53:51.160Z,90.80
2018-12-30T03:56:19.738Z,91.00
2018-12-30T03:58:48.310Z,91.00
2018-12-30T04:01:17.063Z,90.80
2018-12-30T04:03:45.827Z,90.80
2018-12-30T04:06:14.509Z,90.90
2018-12-30T04:08:43.109Z,90.90
2018-12-30T04:11:11.820Z,91.00
2018-12-30T04:13:40.614Z,91.20
2018-12-30T04:16:09.341Z,91.10
2018-12-30T04:18:38.012Z,91.10
2018-12-30T04:21:06.628Z,91.20
2018-12-30T04:23:35.301Z,91.40
2018-12-30T04:26:03.903Z,91.30
2018-12-30T04:28:32.599Z,91.40
2018-12-30T04:31:01.171Z,91.40
2018-12-30T04:33:29.866Z,91.40
2018-12-30T04:35:58.430Z,91.60
2018-12-30T04:38:27.111Z,91.80
2018-12-30T04:40:55.693Z,91.70
2018-12-30T04:43:24.273Z,91.70
2018-12-30T04:45:52.921Z,91.80
2018-12-30T04:48:21.595Z,91.80
2018-12-30T04:50:50.194Z,91.70
2018-12-30T04:53:18.847Z,91.80
2018-12-30T04:55:47.419Z,91.80
2018-12-30T04:58:15.998Z,91.80
2018-12-30T05:00:45.008Z,91.60
2018-12-30T05:03:13.646Z,91.70
2018-12-30T05:05:42.241Z,91.90
2018-12-30T05:08:10.950Z,91.80
2018-12-30T05:10:39.609Z,91.90
2018-12-30T05:13:08.281Z,91.90
2018-12-30T05:15:36.866Z,92.10
2018-12-30T05:18:05.511Z,92.00
2018-12-30T05:20:34.214Z,91.90
2018-12-30T05:23:02.789Z,92.10
2018-12-30T05:25:31.440Z,92.20
2018-12-30T05:28:00.103Z,92.40
2018-12-30T05:30:28.687Z,92.50
2018-12-30T05:32:57.302Z,92.60
2018-12-30T05:35:25.937Z,92.60
2018-12-30T05:37:54.512Z,92.60
2018-12-30T05:40:23.199Z,92.90
2018-12-30T05:42:51.801Z,92.80
2018-12-30T05:45:20.498Z,92.60
2018-12-30T05:47:49.136Z,92.70
2018-12-30T05:50:17.801Z,92.70
2018-12-30T05:52:46.429Z,92.80
2018-12-30T05:55:15.066Z,93.20
2018-12-30T05:57:43.700Z,92.90
2018-12-30T06:00:12.448Z,92.90
2018-12-30T06:02:41.021Z,93.00
2018-12-30T06:05:09.664Z,93.00
2018-12-30T06:07:38.290Z,93.10
2018-12-30T06:10:07.047Z,93.20
2018-12-30T06:12:35.669Z,93.20
2018-12-30T06:15:05.738Z,93.30
2018-12-30T06:17:34.414Z,93.60
2018-12-30T06:20:03.293Z,93.80
2018-12-30T06:22:31.889Z,93.90
2018-12-30T06:25:00.513Z,93.90
2018-12-30T06:27:29.095Z,94.00
2018-12-30T06:29:57.734Z,94.00
2018-12-30T06:32:26.300Z,93.90
2018-12-30T06:34:54.920Z,94.00
2018-12-30T06:37:23.625Z,94.00
2018-12-30T06:39:52.247Z,94.00
2018-12-30T06:42:20.825Z,93.80
2018-12-30T06:44:49.414Z,93.90
2018-12-30T06:47:18.051Z,93.90
2018-12-30T06:49:46.737Z,94.00
2018-12-30T06:52:15.359Z,93.90
2018-12-30T06:54:43.941Z,93.90
2018-12-30T06:57:12.578Z,93.90
2018-12-30T06:59:41.239Z,93.80
2018-12-30T07:02:09.813Z,93.90
2018-12-30T07:04:38.428Z,94.00
2018-12-30T07:07:07.099Z,94.10
2018-12-30T07:09:35.807Z,94.10
2018-12-30T07:12:04.550Z,94.00
2018-12-30T07:14:33.122Z,94.10
2018-12-30T07:17:01.813Z,94.20
2018-12-30T07:19:30.458Z,94.20
2018-12-30T07:21:59.025Z,94.30
2018-12-30T07:24:27.657Z,94.30
2018-12-30T07:26:56.293Z,94.20
2018-12-30T07:29:24.956Z,94.20
2018-12-30T07:31:53.668Z,94.20
2018-12-30T07:34:22.285Z,94.30
2018-12-30T07:36:50.866Z,94.30
2018-12-30T07:39:19.496Z,94.40
2018-12-30T07:41:48.076Z,94.40
2018-12-30T07:44:16.766Z,94.30
2018-12-30T07:46:45.389Z,94.30
2018-12-30T07:49:13.989Z,94.40
2018-12-30T07:51:42.626Z,94.40
2018-12-30T07:54:11.201Z,94.40
2018-12-30T07:56:39.840Z,94.30
2018-12-30T07:59:08.468Z,94.50
2018-12-30T08:01:37.081Z,94.50
2018-12-30T08:04:08.587Z,94.40
2018-12-30T08:06:37.359Z,94.40
2018-12-30T08:09:07.379Z,94.40
2018-12-30T08:11:36.077Z,94.80
2018-12-30T08:14:04.793Z,94.40
2018-12-30T08:16:33.438Z,94.30
2018-12-30T08:19:02.116Z,94.30
2018-12-30T08:21:30.698Z,94.20
2018-12-30T08:23:59.389Z,94.30
2018-12-30T08:26:27.969Z,94.40
2018-12-30T08:28:56.598Z,94.40
2018-12-30T08:31:25.429Z,94.20
2018-12-30T08:33:54.052Z,94.10
2018-12-30T08:36:22.620Z,94.10
2018-12-30T08:38:51.403Z,94.20
2018-12-30T08:41:19.980Z,94.20
2018-12-30T08:43:48.598Z,94.10
2018-12-30T08:46:17.214Z,94.20
2018-12-30T08:48:45.789Z,94.30
2018-12-30T08:51:14.473Z,94.20
2018-12-30T08:53:43.069Z,94.20
2018-12-30T08:56:11.721Z,94.20
2018-12-30T08:58:40.297Z,94.20
2018-12-30T09:01:08.925Z,94.10
2018-12-30T09:03:37.502Z,93.90
2018-12-30T09:08:41.508Z,93.30
2018-12-30T09:11:10.498Z,93.30
2018-12-30T09:13:39.101Z,93.20
2018-12-30T09:16:07.677Z,92.60
2018-12-30T09:18:36.306Z,92.20
2018-12-30T09:21:05.303Z,91.40
2018-12-30T09:23:37.591Z,91.20
2018-12-30T09:26:04.305Z,90.80
2018-12-30T09:28:32.879Z,90.80
2018-12-30T09:31:01.493Z,90.90
2018-12-30T09:33:30.077Z,90.80
2018-12-30T09:35:58.696Z,91.10
2018-12-30T09:38:27.326Z,91.20
2018-12-30T09:40:55.939Z,91.50
2018-12-30T09:43:24.552Z,91.50
2018-12-30T09:45:53.206Z,91.30
2018-12-30T09:48:21.890Z,91.40
2018-12-30T09:50:50.532Z,91.50
2018-12-30T09:53:19.208Z,91.30
2018-12-30T09:55:47.785Z,91.40
2018-12-30T09:58:16.409Z,91.70
2018-12-30T10:00:44.986Z,91.70
2018-12-30T10:03:13.574Z,91.40
2018-12-30T10:05:42.352Z,91.50
2018-12-30T10:08:11.060Z,91.10
2018-12-30T10:10:39.635Z,90.90
2018-12-30T10:13:08.430Z,90.50
2018-12-30T10:15:37.010Z,90.30
2018-12-30T10:18:05.574Z,90.60
2018-12-30T10:20:34.252Z,91.00
2018-12-30T10:23:02.828Z,90.90
2018-12-30T10:25:31.451Z,90.90
2018-12-30T10:28:00.099Z,91.20
2018-12-30T10:30:28.722Z,91.40
2018-12-30T10:32:57.393Z,91.30
2018-12-30T10:35:26.174Z,91.40
2018-12-30T10:37:54.766Z,91.60
2018-12-30T10:40:23.404Z,91.70
2018-12-30T10:42:56.495Z,91.80
2018-12-30T10:45:25.135Z,91.90
2018-12-30T10:47:57.027Z,92.00
2018-12-30T10:50:25.715Z,91.90
2018-12-30T10:52:54.311Z,92.10
2018-12-30T10:55:22.928Z,92.00
2018-12-30T10:57:51.521Z,91.90
2018-12-30T11:00:20.285Z,92.00
2018-12-30T11:02:48.855Z,91.70
2018-12-30T11:05:17.507Z,92.00
2018-12-30T11:07:46.133Z,91.50
2018-12-30T11:10:14.795Z,91.80
2018-12-30T11:12:43.377Z,92.00
2018-12-30T11:15:18.060Z,91.60
2018-12-30T11:17:46.800Z,91.50
2018-12-30T11:20:20.918Z,91.50
2018-12-30T11:22:49.486Z,91.20
2018-12-30T11:25:30.124Z,91.20
2018-12-30T11:27:58.817Z,91.70
2018-12-30T11:30:27.556Z,91.20
2018-12-30T11:32:56.146Z,91.10
2018-12-30T11:35:25.048Z,91.50
2018-12-30T11:37:53.691Z,91.60
2018-12-30T11:40:22.359Z,91.50
2018-12-30T11:42:50.959Z,91.60
2018-12-30T11:45:19.611Z,91.50
2018-12-30T11:47:48.320Z,91.50
2018-12-30T11:50:17.009Z,91.60
2018-12-30T11:52:45.616Z,91.40
2018-12-30T11:55:14.205Z,91.60
2018-12-30T11:57:42.792Z,91.50
2018-12-30T12:00:11.504Z,91.50
2018-12-30T12:02:40.113Z,91.80
2018-12-30T12:05:08.834Z,91.60
2018-12-30T12:07:37.480Z,91.40
2018-12-30T12:10:06.479Z,91.50
2018-12-30T12:12:35.679Z,91.60
2018-12-30T12:15:06.767Z,91.50
2018-12-30T12:17:35.414Z,91.30
2018-12-30T12:20:05.193Z,91.40
2018-12-30T12:22:33.916Z,91.20
2018-12-30T12:25:02.533Z,91.60
2018-12-30T12:27:31.269Z,91.50
2018-12-30T12:30:00.085Z,91.60
2018-12-30T12:32:28.861Z,91.50
2018-12-30T12:34:57.524Z,91.50
2018-12-30T12:37:27.120Z,91.10
2018-12-30T12:39:55.805Z,91.20
2018-12-30T12:42:24.424Z,91.30
2018-12-30T12:44:53.038Z,91.00
2018-12-30T12:47:21.617Z,91.40
2018-12-30T12:49:50.300Z,91.70
2018-12-30T12:52:19.061Z,91.80
2018-12-30T12:54:50.786Z,91.70
2018-12-30T12:57:19.462Z,91.60
2018-12-30T12:59:48.169Z,91.90
2018-12-30T13:02:16.793Z,91.80
2018-12-30T13:04:45.428Z,92.00
2018-12-30T13:07:14.033Z,92.20
2018-12-30T13:09:42.597Z,92.00
2018-12-30T13:12:11.214Z,91.90
2018-12-30T13:14:39.800Z,91.80
2018-12-30T13:17:08.418Z,92.00
2018-12-30T13:19:37.054Z,92.00
2018-12-30T13:22:05.724Z,91.90
2018-12-30T13:24:39.922Z,91.80
2018-12-30T13:27:04.813Z,91.80
2018-12-30T13:29:33.530Z,91.70
2018-12-30T13:32:02.279Z,91.70
2018-12-30T13:34:30.939Z,92.00
2018-12-30T13:36:59.645Z,92.00
2018-12-30T13:39:28.329Z,92.10
2018-12-30T13:41:56.906Z,92.00
2018-12-30T13:44:25.616Z,92.10
2018-12-30T13:46:54.262Z,92.50
2018-12-30T13:49:22.945Z,92.00
2018-12-30T13:51:53.183Z,92.20
2018-12-30T13:54:22.049Z,92.20
2018-12-30T13:56:50.736Z,92.40
2018-12-30T13:59:19.448Z,92.40
2018-12-30T14:01:48.099Z,92.30
2018-12-30T14:04:16.717Z,92.30
2018-12-30T14:06:45.428Z,92.50
2018-12-30T14:09:14.047Z,92.60
2018-12-30T14:11:42.687Z,92.60
2018-12-30T14:14:11.396Z,92.60
2018-12-30T14:16:40.031Z,92.80
2018-12-30T14:19:08.717Z,92.90
2018-12-30T14:21:37.298Z,92.90
2018-12-30T14:24:05.939Z,92.90
2018-12-30T14:29:04.694Z,92.90
2018-12-30T14:31:33.330Z,93.20
2018-12-30T14:34:02.030Z,93.40
2018-12-30T14:36:30.676Z,93.40
2018-12-30T14:38:59.294Z,93.60
2018-12-30T14:41:27.949Z,93.80
2018-12-30T14:43:56.654Z,93.90
2018-12-30T14:46:33.610Z,94.00
2018-12-30T14:48:55.600Z,94.20
2018-12-30T14:51:24.182Z,94.30
2018-12-30T14:53:52.779Z,94.50
2018-12-30T14:56:21.488Z,94.50
2018-12-30T14:58:50.136Z,94.50
2018-12-30T15:01:18.848Z,94.70
2018-12-30T15:03:47.495Z,94.80
2018-12-30T15:08:41.969Z,94.80
2018-12-30T15:11:10.605Z,94.70
2018-12-30T15:13:39.246Z,94.80
2018-12-30T15:16:07.905Z,94.80
2018-12-30T15:18:36.508Z,94.90
2018-12-30T15:21:05.226Z,94.90
2018-12-30T15:23:33.839Z,95.20
2018-12-30T15:26:02.657Z,95.20
2018-12-30T15:28:31.338Z,95.30
2018-12-30T15:30:59.987Z,95.30
2018-12-30T15:33:28.677Z,95.40
2018-12-30T15:35:58.325Z,95.30
2018-12-30T15:38:26.963Z,95.20
2018-12-30T15:40:55.688Z,95.30
2018-12-30T15:43:24.578Z,95.40
2018-12-30T15:45:53.159Z,95.40
2018-12-30T15:48:21.962Z,95.50
2018-12-30T15:50:50.589Z,95.30
2018-12-30T15:53:19.211Z,95.60
2018-12-30T15:55:47.885Z,95.30
2018-12-30T15:58:16.575Z,95.30
2018-12-30T16:00:45.276Z,95.30
2018-12-30T16:03:13.855Z,95.40
2018-12-30T16:05:42.523Z,95.50
2018-12-30T16:08:11.161Z,95.50
2018-12-30T16:10:39.811Z,95.50
2018-12-30T16:13:08.528Z,95.70
2018-12-30T16:15:37.162Z,95.60
2018-12-30T16:18:05.878Z,95.70
2018-12-30T16:20:36.517Z,95.60
2018-12-30T16:23:05.288Z,95.70
2018-12-30T16:25:33.888Z,95.60
2018-12-30T16:28:02.576Z,95.70
2018-12-30T16:30:32.240Z,95.70
2018-12-30T16:33:00.859Z,95.90
2018-12-30T16:35:29.452Z,95.90
2018-12-30T16:37:58.060Z,95.90
2018-12-30T16:40:26.720Z,95.90
2018-12-30T16:42:58.965Z,95.90
2018-12-30T16:45:28.597Z,96.00
2018-12-30T16:47:57.225Z,96.00
2018-12-30T16:50:25.872Z,96.10
2018-12-30T16:52:54.569Z,96.20
2018-12-30T16:55:25.140Z,96.20
2018-12-30T16:57:53.774Z,96.30
2018-12-30T17:00:22.467Z,96.40
2018-12-30T17:02:51.054Z,96.50
2018-12-30T17:05:19.674Z,96.70
2018-12-30T17:07:48.378Z,96.80
2018-12-30T17:10:17.913Z,96.90
2018-12-30T17:12:46.664Z,97.10
2018-12-30T17:15:15.316Z,97.30
2018-12-30T17:17:43.952Z,97.60
2018-12-30T17:20:12.605Z,97.70
2018-12-30T17:22:41.249Z,97.80
2018-12-30T17:25:09.944Z,97.90
2018-12-30T17:27:38.521Z,98.00
2018-12-30T17:30:09.577Z,98.20
2018-12-30T17:32:38.154Z,98.10
2018-12-30T17:35:06.797Z,98.30
2018-12-30T17:37:35.509Z,98.30
2018-12-30T17:40:04.929Z,98.40
2018-12-30T17:42:33.604Z,98.50
2018-12-30T17:45:02.222Z,98.50
2018-12-30T17:47:30.805Z,98.50
2018-12-30T17:49:59.425Z,98.60
2018-12-30T17:52:28.079Z,98.60
2018-12-30T17:54:56.775Z,98.60
2018-12-30T17:57:25.348Z,98.70
2018-12-30T17:59:53.985Z,98.90
2018-12-30T18:02:22.737Z,98.90
2018-12-30T18:04:51.389Z,99.40
2018-12-30T18:07:20.110Z,99.10
2018-12-30T18:09:48.717Z,99.10
2018-12-30T18:12:17.298Z,99.20
2018-12-30T18:14:45.977Z,99.10
2018-12-30T18:17:14.627Z,99.20
2018-12-30T18:19:43.424Z,99.20
2018-12-30T18:22:12.065Z,99.20
2018-12-30T18:24:40.693Z,99.20
2018-12-30T18:27:09.273Z,99.30
2018-12-30T18:29:38.060Z,99.30
2018-12-30T18:32:06.677Z,99.20
2018-12-30T18:34:35.443Z,99.20
2018-12-30T18:37:04.228Z,99.30
2018-12-30T18:39:32.842Z,99.20
2018-12-30T18:42:01.479Z,99.20
2018-12-30T18:44:30.113Z,99.20
2018-12-30T18:46:58.686Z,99.20
2018-12-30T18:49:27.374Z,99.30
2018-12-30T18:51:56.002Z,99.30
2018-12-30T18:54:24.739Z,99.30
2018-12-30T18:56:53.489Z,99.30
2018-12-30T18:59:22.092Z,99.30
2018-12-30T19:01:50.741Z,99.30
2018-12-30T19:04:19.355Z,99.30
2018-12-30T19:06:47.973Z,99.30
2018-12-30T19:09:16.636Z,99.20
2018-12-30T19:11:45.336Z,99.20
2018-12-30T19:14:13.917Z,99.10
2018-12-30T19:16:43.762Z,99.10
2018-12-30T19:19:12.451Z,99.00
2018-12-30T19:21:41.028Z,99.10
2018-12-30T19:24:09.720Z,99.10
2018-12-30T19:26:38.357Z,99.10
2018-12-30T19:29:07.083Z,99.20
2018-12-30T19:31:35.796Z,99.30
2018-12-30T19:34:04.671Z,99.30
2018-12-30T19:36:34.221Z,99.10
2018-12-30T19:39:02.800Z,99.10
2018-12-30T19:41:31.446Z,99.20
2018-12-30T19:44:00.096Z,99.10
2018-12-30T19:46:28.706Z,99.10
2018-12-30T19:48:57.276Z,99.00
2018-12-30T19:51:25.897Z,99.10
2018-12-30T19:53:54.481Z,99.00
2018-12-30T19:56:23.135Z,99.10
2018-12-30T19:58:51.812Z,99.10
2018-12-30T20:01:20.567Z,99.10
2018-12-30T20:03:49.188Z,99.10
2018-12-30T20:06:17.809Z,99.10
2018-12-30T20:08:46.383Z,99.10
2018-12-30T20:11:15.172Z,99.10
2018-12-30T20:13:43.760Z,99.10
2018-12-30T20:16:12.359Z,99.10
2018-12-30T20:18:41.061Z,99.20
2018-12-30T20:21:09.657Z,99.20
2018-12-30T20:23:38.269Z,99.10
2018-12-30T20:26:06.845Z,99.10
2018-12-30T20:28:35.458Z,99.10
2018-12-30T20:31:05.153Z,99.10
2018-12-30T20:33:33.826Z,99.30
2018-12-30T20:36:02.851Z,99.30
2018-12-30T20:38:31.420Z,99.30
2018-12-30T20:41:00.107Z,99.40
2018-12-30T20:43:28.681Z,99.40
2018-12-30T20:45:57.372Z,99.40
2018-12-30T20:48:26.025Z,99.40
2018-12-30T20:50:54.716Z,99.50
2018-12-30T20:53:23.301Z,99.50
2018-12-30T20:55:52.025Z,99.60
2018-12-30T20:58:20.605Z,99.70
2018-12-30T21:00:49.227Z,99.80
2018-12-30T21:03:17.805Z,99.90
2018-12-30T21:05:46.437Z,99.90
2018-12-30T21:08:15.203Z,99.90
2018-12-30T21:10:44.102Z,99.90
2018-12-30T21:13:13.215Z,99.90
2018-12-30T21:15:41.800Z,99.90
2018-12-30T21:18:10.879Z,99.90
2018-12-30T21:20:39.684Z,99.90
2018-12-30T21:23:08.388Z,99.90
2018-12-30T21:25:37.141Z,99.90
2018-12-30T21:28:05.826Z,99.90
2018-12-30T21:30:34.470Z,99.90
2018-12-30T21:33:03.304Z,99.90
2018-12-30T21:35:31.914Z,99.90
2018-12-30T21:38:00.585Z,99.90
2018-12-30T21:40:29.352Z,99.90
2018-12-30T21:42:57.997Z,99.90
2018-12-30T21:45:26.643Z,99.90
2018-12-30T21:47:55.350Z,99.90
2018-12-30T21:50:24.000Z,99.90
2018-12-30T21:52:52.673Z,99.90
2018-12-30T21:55:21.357Z,99.90
2018-12-30T21:57:49.936Z,99.90
2018-12-30T22:00:18.710Z,99.90
2018-12-30T22:02:47.383Z,99.90
2018-12-30T22:05:15.956Z,99.90
2018-12-30T22:07:44.605Z,99.90
2018-12-30T22:10:17.258Z,99.90
2018-12-30T22:12:43.627Z,99.90
2018-12-30T22:15:12.342Z,99.90
2018-12-30T22:17:40.928Z,99.90
2018-12-30T22:20:09.606Z,99.90
2018-12-30T22:22:38.201Z,99.90
2018-12-30T22:25:06.950Z,99.90
2018-12-30T22:27:35.680Z,99.90
2018-12-30T22:30:05.400Z,99.90
2018-12-30T22:32:34.051Z,99.90
2018-12-30T22:35:02.773Z,99.90
2018-12-30T22:37:31.358Z,99.90
2018-12-30T22:39:59.969Z,99.90
2018-12-30T22:42:32.697Z,99.90
2018-12-30T22:44:58.924Z,99.90
2018-12-30T22:47:27.587Z,99.90
2018-12-30T22:49:56.227Z,99.90
2018-12-30T22:52:24.843Z,99.90
2018-12-30T22:54:53.544Z,99.90
2018-12-30T22:57:22.228Z,99.90
2018-12-30T22:59:50.852Z,99.90
2018-12-30T23:02:19.493Z,99.90
2018-12-30T23:04:48.120Z,99.90
2018-12-30T23:07:16.746Z,99.90
2018-12-30T23:09:45.315Z,99.90
2018-12-30T23:12:14.072Z,99.90
2018-12-30T23:14:42.833Z,99.90
2018-12-30T23:17:11.825Z,99.90
2018-12-30T23:19:40.493Z,99.90
2018-12-30T23:22:09.093Z,99.90
2018-12-30T23:24:37.732Z,99.90
2018-12-30T23:27:06.407Z,99.90
2018-12-30T23:29:35.120Z,99.90
2018-12-30T23:32:03.784Z,99.90
2018-12-30T23:34:32.433Z,99.90
2018-12-30T23:37:01.077Z,99.90
2018-12-30T23:39:29.657Z,99.90
2018-12-30T23:41:58.451Z,99.90
2018-12-30T23:44:27.135Z,99.90
2018-12-30T23:46:55.725Z,99.90
2018-12-30T23:49:24.357Z,99.90
2018-12-30T23:51:52.978Z,99.90
2018-12-30T23:54:21.630Z,99.90
2018-12-30T23:56:50.508Z,99.90
2018-12-30T23:59:19.261Z,99.90
